Time,TemperatureF,DewpointF,PressureIn,WindDirection,WindDirectionDegrees,WindSpeedMPH,WindSpeedGustMPH,Humidity,HourlyPrecipIn,Conditions,Clouds,dailyrainin,SoftwareType,DateUTC
2014-04-18 00:05:00,53.2,48.5,29.86,NE,53,0.0,0.0,84,0.00,,,0.00,Wunderground v.1.15,2014-04-18 07:05:00,
2014-04-18 00:10:00,53.0,48.3,29.87,NE,51,0.0,0.0,84,0.00,,,0.00,Wunderground v.1.15,2014-04-18 07:10:00,
2014-04-18 00:15:00,52.8,48.1,29.87,NE,51,0.0,0.0,84,0.00,,,0.00,Wunderground v.1.15,2014-04-18 07:15:00,
2014-04-18 00:25:00,52.3,47.9,29.87,NE,48,0.0,0.0,85,0.00,,,0.00,Wunderground v.1.15,2014-04-18 07:25:00,
2014-04-18 00:30:00,52.2,48.1,29.87,West,281,0.0,0.0,86,0.00,,,0.00,Wunderground v.1.15,2014-04-18 07:30:00,
2014-04-18 00:35:00,52.1,48.0,29.87,West,280,0.0,0.0,86,0.00,,,0.00,Wunderground v.1.15,2014-04-18 07:35:00,
2014-04-18 00:40:00,52.0,47.9,29.86,West,280,0.0,0.0,86,0.00,,,0.00,Wunderground v.1.15,2014-04-18 07:40:00,
2014-04-18 00:45:00,51.8,47.7,29.86,NNW,333,0.0,0.0,86,0.00,,,0.00,Wunderground v.1.15,2014-04-18 07:45:00,
2014-04-18 00:50:00,51.7,47.6,29.86,NNE,30,0.0,0.0,86,0.00,,,0.00,Wunderground v.1.15,2014-04-18 07:50:00,
2014-04-18 01:00:00,51.3,47.6,29.86,WSW,249,0.0,0.0,87,0.00,,,0.00,Wunderground v.1.15,2014-04-18 08:00:00,
2014-04-18 01:05:00,51.2,47.5,29.86,East,94,0.0,1.0,87,0.00,,,0.00,Wunderground v.1.15,2014-04-18 08:05:00,
2014-04-18 01:10:00,51.2,47.5,29.86,NE,44,0.0,0.0,87,0.00,,,0.00,Wunderground v.1.15,2014-04-18 08:10:00,
2014-04-18 01:15:00,51.2,47.5,29.86,ENE,60,0.0,0.0,87,0.00,,,0.00,Wunderground v.1.15,2014-04-18 08:15:00,
2014-04-18 01:20:00,51.1,47.4,29.86,ENE,69,0.0,0.0,87,0.00,,,0.00,Wunderground v.1.15,2014-04-18 08:20:00,
2014-04-18 01:25:00,51.0,47.3,29.86,ENE,74,0.0,0.0,87,0.00,,,0.00,Wunderground v.1.15,2014-04-18 08:25:00,
2014-04-18 01:35:00,51.0,47.3,29.86,ENE,72,0.0,1.0,87,0.00,,,0.00,Wunderground v.1.15,2014-04-18 08:35:00,
2014-04-18 01:40:00,50.9,47.2,29.86,ENE,65,0.0,0.0,87,0.00,,,0.00,Wunderground v.1.15,2014-04-18 08:40:00,
2014-04-18 01:45:00,50.8,47.1,29.86,ENE,58,0.0,0.0,87,0.00,,,0.00,Wunderground v.1.15,2014-04-18 08:45:00,
2014-04-18 01:50:00,50.8,47.4,29.86,East,101,0.0,0.0,88,0.00,,,0.00,Wunderground v.1.15,2014-04-18 08:50:00,
2014-04-18 02:00:00,50.6,47.2,29.86,ESE,117,0.0,0.0,88,0.00,,,0.00,Wunderground v.1.15,2014-04-18 09:00:00,
2014-04-18 02:05:00,50.6,47.2,29.86,ENE,70,0.0,0.0,88,0.00,,,0.00,Wunderground v.1.15,2014-04-18 09:05:00,
2014-04-18 02:15:00,50.5,47.1,29.86,NE,54,0.0,0.0,88,0.00,,,0.00,Wunderground v.1.15,2014-04-18 09:15:00,
2014-04-18 02:20:00,50.4,47.0,29.87,NE,54,0.0,0.0,88,0.00,,,0.00,Wunderground v.1.15,2014-04-18 09:20:00,
2014-04-18 02:25:00,50.3,46.9,29.86,ENE,69,0.0,0.0,88,0.00,,,0.00,Wunderground v.1.15,2014-04-18 09:25:00,
2014-04-18 02:30:00,50.2,46.8,29.86,ENE,70,0.0,0.0,88,0.00,,,0.00,Wunderground v.1.15,2014-04-18 09:30:00,
2014-04-18 02:35:00,50.2,47.1,29.86,NE,56,0.0,0.0,89,0.00,,,0.00,Wunderground v.1.15,2014-04-18 09:35:00,
2014-04-18 02:40:00,50.1,47.0,29.86,East,82,0.0,0.0,89,0.00,,,0.00,Wunderground v.1.15,2014-04-18 09:40:00,
2014-04-18 02:50:00,50.0,46.9,29.86,NE,56,0.0,0.0,89,0.00,,,0.00,Wunderground v.1.15,2014-04-18 09:50:00,
2014-04-18 02:55:00,50.0,46.9,29.86,East,96,0.0,0.0,89,0.00,,,0.00,Wunderground v.1.15,2014-04-18 09:55:00,
2014-04-18 03:00:00,50.0,46.9,29.85,East,101,0.0,0.0,89,0.00,,,0.00,Wunderground v.1.15,2014-04-18 10:00:00,
2014-04-18 03:05:00,50.0,46.9,29.86,ENE,70,0.0,0.0,89,0.00,,,0.00,Wunderground v.1.15,2014-04-18 10:05:00,
2014-04-18 03:10:00,50.0,47.2,29.86,NE,49,0.0,0.0,90,0.00,,,0.00,Wunderground v.1.15,2014-04-18 10:10:00,
2014-04-18 03:15:00,50.0,47.2,29.86,NNE,33,0.0,0.0,90,0.00,,,0.00,Wunderground v.1.15,2014-04-18 10:15:00,
2014-04-18 03:25:00,49.8,47.0,29.86,NE,52,0.0,0.0,90,0.00,,,0.00,Wunderground v.1.15,2014-04-18 10:25:00,
2014-04-18 03:30:00,49.8,47.0,29.86,ENE,61,0.0,0.0,90,0.00,,,0.00,Wunderground v.1.15,2014-04-18 10:30:00,
2014-04-18 03:35:00,49.8,47.0,29.86,ENE,73,0.0,0.0,90,0.00,,,0.00,Wunderground v.1.15,2014-04-18 10:35:00,
2014-04-18 03:40:00,49.8,47.0,29.86,ENE,63,0.0,0.0,90,0.00,,,0.00,Wunderground v.1.15,2014-04-18 10:40:00,
2014-04-18 03:45:00,49.8,47.0,29.86,ENE,63,0.0,0.0,90,0.00,,,0.00,Wunderground v.1.15,2014-04-18 10:45:00,
2014-04-18 03:50:00,49.7,46.9,29.86,ENE,63,0.0,0.0,90,0.00,,,0.00,Wunderground v.1.15,2014-04-18 10:50:00,
2014-04-18 04:00:00,49.5,46.7,29.86,SE,139,0.0,0.0,90,0.00,,,0.00,Wunderground v.1.15,2014-04-18 11:00:00,
2014-04-18 04:05:00,49.4,46.6,29.86,ESE,108,0.0,0.0,90,0.00,,,0.00,Wunderground v.1.15,2014-04-18 11:05:00,
2014-04-18 04:10:00,49.4,46.9,29.86,ESE,104,0.0,0.0,91,0.00,,,0.00,Wunderground v.1.15,2014-04-18 11:10:00,
2014-04-18 04:20:00,49.8,47.3,29.86,ESE,105,0.0,0.0,91,0.00,,,0.00,Wunderground v.1.15,2014-04-18 11:20:00,
2014-04-18 04:25:00,49.9,47.4,29.86,ESE,104,0.0,0.0,91,0.00,,,0.00,Wunderground v.1.15,2014-04-18 11:25:00,
2014-04-18 04:30:00,50.1,47.6,29.86,ESE,105,0.0,0.0,91,0.00,,,0.00,Wunderground v.1.15,2014-04-18 11:30:00,
2014-04-18 04:35:00,50.3,47.5,29.87,East,98,0.0,0.0,90,0.00,,,0.00,Wunderground v.1.15,2014-04-18 11:35:00,
2014-04-18 04:40:00,50.4,47.6,29.87,ESE,114,0.0,0.0,90,0.00,,,0.00,Wunderground v.1.15,2014-04-18 11:40:00,
2014-04-18 04:45:00,50.5,47.7,29.87,ESE,114,0.0,0.0,90,0.00,,,0.00,Wunderground v.1.15,2014-04-18 11:45:00,
2014-04-18 04:50:00,50.6,47.8,29.87,ESE,114,0.0,0.0,90,0.00,,,0.00,Wunderground v.1.15,2014-04-18 11:50:00,
2014-04-18 04:55:00,50.7,47.9,29.87,ESE,114,0.0,0.0,90,0.00,,,0.00,Wunderground v.1.15,2014-04-18 11:55:00,
2014-04-18 05:00:00,50.8,47.7,29.87,ESE,114,0.0,0.0,89,0.00,,,0.00,Wunderground v.1.15,2014-04-18 12:00:00,
2014-04-18 05:05:00,50.9,47.8,29.87,ESE,114,0.0,0.0,89,0.00,,,0.00,Wunderground v.1.15,2014-04-18 12:05:00,
2014-04-18 05:15:00,50.7,47.6,29.86,ESE,114,0.0,0.0,89,0.00,,,0.00,Wunderground v.1.15,2014-04-18 12:15:00,
2014-04-18 05:20:00,50.6,47.5,29.86,ESE,114,0.0,0.0,89,0.00,,,0.00,Wunderground v.1.15,2014-04-18 12:20:00,
2014-04-18 05:25:00,50.5,47.4,29.87,ESE,114,0.0,0.0,89,0.00,,,0.00,Wunderground v.1.15,2014-04-18 12:25:00,
2014-04-18 05:30:00,50.4,47.6,29.87,ESE,114,0.0,0.0,90,0.00,,,0.00,Wunderground v.1.15,2014-04-18 12:30:00,
2014-04-18 05:35:00,50.2,47.4,29.87,ESE,112,0.0,0.0,90,0.00,,,0.00,Wunderground v.1.15,2014-04-18 12:35:00,
2014-04-18 05:40:00,50.2,47.4,29.87,ESE,112,0.0,0.0,90,0.00,,,0.00,Wunderground v.1.15,2014-04-18 12:40:00,
2014-04-18 05:50:00,50.0,47.2,29.86,East,101,0.0,0.0,90,0.00,,,0.00,Wunderground v.1.15,2014-04-18 12:50:00,
2014-04-18 05:55:00,50.0,47.2,29.87,East,79,0.0,0.0,90,0.00,,,0.00,Wunderground v.1.15,2014-04-18 12:55:00,
2014-04-18 06:00:00,49.9,47.1,29.87,NE,54,0.0,0.0,90,0.00,,,0.00,Wunderground v.1.15,2014-04-18 13:00:00,
2014-04-18 06:05:00,49.8,47.0,29.86,ENE,58,0.0,0.0,90,0.00,,,0.00,Wunderground v.1.15,2014-04-18 13:05:00,
2014-04-18 06:10:00,49.7,46.9,29.86,ENE,77,0.0,0.0,90,0.00,,,0.00,Wunderground v.1.15,2014-04-18 13:10:00,
2014-04-18 06:15:00,49.7,46.9,29.86,ENE,58,0.0,0.0,90,0.00,,,0.00,Wunderground v.1.15,2014-04-18 13:15:00,
2014-04-18 06:25:00,49.7,46.9,29.87,ENE,75,0.0,0.0,90,0.00,,,0.00,Wunderground v.1.15,2014-04-18 13:25:00,
2014-04-18 06:30:00,49.6,46.8,29.87,ENE,75,0.0,0.0,90,0.00,,,0.00,Wunderground v.1.15,2014-04-18 13:30:00,
2014-04-18 06:40:00,49.4,46.6,29.88,ENE,75,0.0,0.0,90,0.00,,,0.00,Wunderground v.1.15,2014-04-18 13:40:00,
2014-04-18 06:45:00,49.2,46.4,29.88,ENE,75,0.0,0.0,90,0.00,,,0.00,Wunderground v.1.15,2014-04-18 13:45:00,
2014-04-18 06:50:00,48.9,45.8,29.88,ENE,75,0.0,0.0,89,0.00,,,0.00,Wunderground v.1.15,2014-04-18 13:50:00,
2014-04-18 06:55:00,48.8,46.0,29.88,ENE,75,0.0,0.0,90,0.00,,,0.00,Wunderground v.1.15,2014-04-18 13:55:00,
2014-04-18 07:05:00,48.9,46.4,29.89,ENE,75,0.0,0.0,91,0.00,,,0.00,Wunderground v.1.15,2014-04-18 14:05:00,
2014-04-18 07:10:00,49.0,46.5,29.89,ENE,75,0.0,0.0,91,0.00,,,0.00,Wunderground v.1.15,2014-04-18 14:10:00,
2014-04-18 07:15:00,49.2,46.7,29.89,ENE,75,0.0,0.0,91,0.00,,,0.00,Wunderground v.1.15,2014-04-18 14:15:00,
2014-04-18 07:20:00,49.3,46.8,29.90,ENE,75,0.0,0.0,91,0.00,,,0.00,Wunderground v.1.15,2014-04-18 14:20:00,
2014-04-18 07:25:00,49.4,46.9,29.90,ENE,75,0.0,0.0,91,0.00,,,0.00,Wunderground v.1.15,2014-04-18 14:25:00,
2014-04-18 07:30:00,49.5,47.0,29.90,ENE,75,0.0,0.0,91,0.00,,,0.00,Wunderground v.1.15,2014-04-18 14:30:00,
2014-04-18 07:35:00,49.8,47.6,29.90,ENE,77,0.0,0.0,92,0.00,,,0.00,Wunderground v.1.15,2014-04-18 14:35:00,
2014-04-18 07:40:00,50.1,47.9,29.90,ENE,77,0.0,0.0,92,0.00,,,0.00,Wunderground v.1.15,2014-04-18 14:40:00,
2014-04-18 07:45:00,50.5,48.3,29.91,NE,53,0.0,0.0,92,0.00,,,0.00,Wunderground v.1.15,2014-04-18 14:45:00,
2014-04-18 07:50:00,50.8,48.3,29.91,SW,231,0.0,0.0,91,0.00,,,0.00,Wunderground v.1.15,2014-04-18 14:50:00,
2014-04-18 07:55:00,51.1,48.6,29.91,East,90,0.0,0.0,91,0.00,,,0.00,Wunderground v.1.15,2014-04-18 14:55:00,
2014-04-18 08:00:00,51.3,48.5,29.91,ENE,72,0.0,0.0,90,0.00,,,0.00,Wunderground v.1.15,2014-04-18 15:00:00,
2014-04-18 08:05:00,51.9,49.1,29.91,ENE,70,0.0,0.0,90,0.00,,,0.00,Wunderground v.1.15,2014-04-18 15:05:00,
2014-04-18 08:15:00,53.4,49.6,29.91,South,188,0.0,0.0,87,0.00,,,0.00,Wunderground v.1.15,2014-04-18 15:15:00,
2014-04-18 08:20:00,53.8,49.7,29.91,SSW,194,0.0,0.0,86,0.00,,,0.00,Wunderground v.1.15,2014-04-18 15:20:00,
2014-04-18 08:25:00,54.0,49.6,29.91,South,188,0.0,0.0,85,0.00,,,0.00,Wunderground v.1.15,2014-04-18 15:25:00,
2014-04-18 08:30:00,54.5,49.8,29.91,South,174,0.0,0.0,84,0.00,,,0.00,Wunderground v.1.15,2014-04-18 15:30:00,
2014-04-18 08:40:00,56.0,50.6,29.91,ESE,123,0.0,0.0,82,0.00,,,0.00,Wunderground v.1.15,2014-04-18 15:40:00,
2014-04-18 08:45:00,56.9,50.8,29.91,SE,132,0.0,0.0,80,0.00,,,0.00,Wunderground v.1.15,2014-04-18 15:45:00,
2014-04-18 08:55:00,57.4,49.9,29.91,WSW,258,0.0,0.0,76,0.00,,,0.00,Wunderground v.1.15,2014-04-18 15:55:00,
2014-04-18 09:00:00,58.0,50.5,29.91,West,266,0.0,0.0,76,0.00,,,0.00,Wunderground v.1.15,2014-04-18 16:00:00,
2014-04-18 09:05:00,58.6,50.7,29.91,WSW,240,0.0,0.0,75,0.00,,,0.00,Wunderground v.1.15,2014-04-18 16:05:00,
2014-04-18 09:10:00,59.0,51.1,29.91,WSW,256,0.0,0.0,75,0.00,,,0.00,Wunderground v.1.15,2014-04-18 16:10:00,
2014-04-18 09:15:00,59.4,51.1,29.91,WSW,246,0.0,0.0,74,0.00,,,0.00,Wunderground v.1.15,2014-04-18 16:15:00,
2014-04-18 09:20:00,60.0,51.3,29.91,WSW,243,0.0,0.0,73,0.00,,,0.00,Wunderground v.1.15,2014-04-18 16:20:00,
2014-04-18 09:30:00,61.3,52.2,29.91,NE,53,0.0,0.0,72,0.00,,,0.00,Wunderground v.1.15,2014-04-18 16:30:00,
2014-04-18 09:35:00,61.6,51.3,29.92,West,276,0.0,0.0,69,0.00,,,0.00,Wunderground v.1.15,2014-04-18 16:35:00,
2014-04-18 09:40:00,61.4,51.5,29.92,WNW,283,0.0,0.0,70,0.00,,,0.00,Wunderground v.1.15,2014-04-18 16:40:00,
2014-04-18 09:45:00,61.4,51.5,29.91,West,269,0.0,0.0,70,0.00,,,0.00,Wunderground v.1.15,2014-04-18 16:45:00,
2014-04-18 09:50:00,61.7,51.4,29.91,NNW,333,0.0,0.0,69,0.00,,,0.00,Wunderground v.1.15,2014-04-18 16:50:00,
2014-04-18 09:55:00,61.6,50.9,29.92,WSW,238,0.0,0.0,68,0.00,,,0.00,Wunderground v.1.15,2014-04-18 16:55:00,
2014-04-18 10:05:00,62.7,51.6,29.92,SW,225,0.0,0.0,67,0.00,,,0.00,Wunderground v.1.15,2014-04-18 17:05:00,
2014-04-18 10:10:00,62.9,51.8,29.92,East,86,0.0,0.0,67,0.00,,,0.00,Wunderground v.1.15,2014-04-18 17:10:00,
2014-04-18 10:15:00,63.0,51.9,29.92,NW,305,0.0,0.0,67,0.00,,,0.00,Wunderground v.1.15,2014-04-18 17:15:00,
2014-04-18 10:25:00,63.4,51.4,29.92,ENE,72,0.0,0.0,65,0.00,,,0.00,Wunderground v.1.15,2014-04-18 17:25:00,
2014-04-18 10:30:00,63.4,51.0,29.92,ENE,75,0.0,0.0,64,0.00,,,0.00,Wunderground v.1.15,2014-04-18 17:30:00,
2014-04-18 10:35:00,63.7,51.7,29.92,West,259,0.0,0.0,65,0.00,,,0.00,Wunderground v.1.15,2014-04-18 17:35:00,
2014-04-18 10:45:00,65.0,51.2,29.92,WNW,283,0.0,0.0,61,0.00,,,0.00,Wunderground v.1.15,2014-04-18 17:45:00,
2014-04-18 10:50:00,65.0,51.2,29.92,SSE,159,0.0,0.0,61,0.00,,,0.00,Wunderground v.1.15,2014-04-18 17:50:00,
2014-04-18 10:55:00,65.0,51.2,29.92,SE,131,0.0,0.0,61,0.00,,,0.00,Wunderground v.1.15,2014-04-18 17:55:00,
2014-04-18 11:00:00,64.8,51.0,29.92,WSW,243,0.0,0.0,61,0.00,,,0.00,Wunderground v.1.15,2014-04-18 18:00:00,
2014-04-18 11:05:00,64.8,51.5,29.92,West,259,0.0,0.0,62,0.00,,,0.00,Wunderground v.1.15,2014-04-18 18:05:00,
2014-04-18 11:10:00,65.3,51.9,29.92,WSW,255,0.0,0.0,62,0.00,,,0.00,Wunderground v.1.15,2014-04-18 18:10:00,
2014-04-18 11:20:00,66.2,51.9,29.92,NNW,328,0.0,0.0,60,0.00,,,0.00,Wunderground v.1.15,2014-04-18 18:20:00,
2014-04-18 11:25:00,66.3,52.0,29.92,West,266,0.0,0.0,60,0.00,,,0.00,Wunderground v.1.15,2014-04-18 18:25:00,
2014-04-18 11:30:00,66.2,51.4,29.91,NNW,333,0.0,1.0,59,0.00,,,0.00,Wunderground v.1.15,2014-04-18 18:30:00,
2014-04-18 11:35:00,66.0,51.7,29.91,WNW,283,0.0,1.0,60,0.00,,,0.00,Wunderground v.1.15,2014-04-18 18:35:00,
2014-04-18 11:40:00,66.0,51.3,29.92,NW,309,0.0,0.0,59,0.00,,,0.00,Wunderground v.1.15,2014-04-18 18:40:00,
2014-04-18 11:45:00,66.2,51.4,29.91,NNW,336,0.0,0.0,59,0.00,,,0.00,Wunderground v.1.15,2014-04-18 18:45:00,
2014-04-18 11:55:00,67.2,51.4,29.91,WSW,243,0.0,1.0,57,0.00,,,0.00,Wunderground v.1.15,2014-04-18 18:55:00,
2014-04-18 12:00:00,67.2,52.4,29.91,ENE,58,0.0,1.0,59,0.00,,,0.00,Wunderground v.1.15,2014-04-18 19:00:00,
2014-04-18 12:05:00,67.2,52.4,29.90,NNE,22,0.0,1.0,59,0.00,,,0.00,Wunderground v.1.15,2014-04-18 19:05:00,
2014-04-18 12:10:00,67.7,52.4,29.90,WSW,249,0.0,1.0,58,0.00,,,0.00,Wunderground v.1.15,2014-04-18 19:10:00,
2014-04-18 12:15:00,67.6,52.3,29.90,West,266,0.0,1.0,58,0.00,,,0.00,Wunderground v.1.15,2014-04-18 19:15:00,
2014-04-18 12:20:00,67.8,52.9,29.91,WSW,252,0.0,0.0,59,0.00,,,0.00,Wunderground v.1.15,2014-04-18 19:20:00,
2014-04-18 12:30:00,68.1,52.3,29.91,NNE,32,0.0,0.0,57,0.00,,,0.00,Wunderground v.1.15,2014-04-18 19:30:00,
2014-04-18 12:35:00,68.2,52.4,29.91,WNW,290,0.0,1.0,57,0.00,,,0.00,Wunderground v.1.15,2014-04-18 19:35:00,
2014-04-18 12:40:00,68.4,52.6,29.90,North,9,1.0,1.0,57,0.00,,,0.00,Wunderground v.1.15,2014-04-18 19:40:00,
2014-04-18 12:45:00,68.5,52.2,29.90,SW,217,1.0,2.0,56,0.00,,,0.00,Wunderground v.1.15,2014-04-18 19:45:00,
2014-04-18 12:50:00,68.4,52.1,29.90,South,180,1.0,1.0,56,0.00,,,0.00,Wunderground v.1.15,2014-04-18 19:50:00,
2014-04-18 12:55:00,68.5,52.2,29.90,NE,41,1.0,1.0,56,0.00,,,0.00,Wunderground v.1.15,2014-04-18 19:55:00,
2014-04-18 13:05:00,68.7,52.4,29.90,WSW,246,1.0,1.0,56,0.00,,,0.00,Wunderground v.1.15,2014-04-18 20:05:00,
2014-04-18 13:10:00,68.9,52.6,29.90,ENE,78,1.0,1.0,56,0.00,,,0.00,Wunderground v.1.15,2014-04-18 20:10:00,
2014-04-18 13:15:00,69.0,52.6,29.90,SSW,198,1.0,1.0,56,0.00,,,0.00,Wunderground v.1.15,2014-04-18 20:15:00,
2014-04-18 13:20:00,69.0,52.2,29.90,SW,221,1.0,3.0,55,0.00,,,0.00,Wunderground v.1.15,2014-04-18 20:20:00,
2014-04-18 13:25:00,68.7,52.4,29.90,NE,44,1.0,3.0,56,0.00,,,0.00,Wunderground v.1.15,2014-04-18 20:25:00,
2014-04-18 13:30:00,68.8,52.5,29.90,NE,40,1.0,1.0,56,0.00,,,0.00,Wunderground v.1.15,2014-04-18 20:30:00,
2014-04-18 13:35:00,68.9,52.6,29.90,WNW,283,1.0,1.0,56,0.00,,,0.00,Wunderground v.1.15,2014-04-18 20:35:00,
2014-04-18 13:40:00,68.7,51.9,29.90,ENE,77,1.0,1.0,55,0.00,,,0.00,Wunderground v.1.15,2014-04-18 20:40:00,
2014-04-18 13:45:00,68.8,52.0,29.89,NNW,338,1.0,1.0,55,0.00,,,0.00,Wunderground v.1.15,2014-04-18 20:45:00,
2014-04-18 13:50:00,69.1,52.2,29.89,West,261,1.0,1.0,55,0.00,,,0.00,Wunderground v.1.15,2014-04-18 20:50:00,
2014-04-18 13:55:00,69.2,51.8,29.90,SW,228,1.0,3.0,54,0.00,,,0.00,Wunderground v.1.15,2014-04-18 20:55:00,